Aviation Digital Data Service (ADDS)

Output produced by METARs form (1911 UTC 19 April 2019)
found at http://www.aviationweather.gov/metar/data/
 
METAR text: RJCB 191100Z 33019KT 9999 BKN060 04/M06 Q1009
Conditions at: RJCB (OBIHIRO AIRPORT , JP) observed 1100 UTC 19 April 2019
Temperature: 4.0°C (39°F)
Dewpoint: -6.0°C (21°F) [RH = 48%]
Pressure (altimeter): 29.79 inches Hg (1009.0 mb)
Winds: from the NNW (330 degrees) at 22 MPH (19 knots; 9.8 m/s)
Visibility: 6 or more miles (10+ km)
Ceiling: 6000 feet AGL
Clouds: broken clouds at 6000 feet AGL
Weather: no significant weather observed at this time

METAR text: RJCB 191000Z 34019KT 9999 FEW050 BKN/// 05/M04 Q1007
Conditions at: RJCB (OBIHIRO AIRPORT , JP) observed 1000 UTC 19 April 2019
Temperature: 5.0°C (41°F)
Dewpoint: -4.0°C (25°F) [RH = 52%]
Pressure (altimeter): 29.73 inches Hg (1007.0 mb)
Winds: from the NNW (340 degrees) at 22 MPH (19 knots; 9.8 m/s)
Visibility: 6 or more miles (10+ km)
Ceiling: at least 12,000 feet AGL
Clouds: few clouds at 5000 feet AGL
Weather: no significant weather observed at this time

METAR text: RJCB 190900Z 34020KT 9999 SCT060 BKN/// 08/M03 Q1006
Conditions at: RJCB (OBIHIRO AIRPORT , JP) observed 0900 UTC 19 April 2019
Temperature: 8.0°C (46°F)
Dewpoint: -3.0°C (27°F) [RH = 46%]
Pressure (altimeter): 29.70 inches Hg (1006.0 mb)
Winds: from the NNW (340 degrees) at 23 MPH (20 knots; 10.3 m/s)
Visibility: 6 or more miles (10+ km)
Ceiling: at least 12,000 feet AGL
Clouds: scattered clouds at 6000 feet AGL
Weather: no significant weather observed at this time

METAR text: RJCB 190800Z 35018KT 9999 SCT060 BKN/// 09/M00 Q1005
Conditions at: RJCB (OBIHIRO AIRPORT , JP) observed 0800 UTC 19 April 2019
Temperature: 9.0°C (48°F)
Dewpoint: 0.0°C (32°F) [RH = 53%]
Pressure (altimeter): 29.68 inches Hg (1005.0 mb)
Winds: from the N (350 degrees) at 21 MPH (18 knots; 9.3 m/s)
Visibility: 6 or more miles (10+ km)
Ceiling: at least 12,000 feet AGL
Clouds: scattered clouds at 6000 feet AGL
Weather: no significant weather observed at this time

METAR text: RJCB 190700Z 35013KT 9999 FEW040 11/01 Q1005
Conditions at: RJCB (OBIHIRO AIRPORT , JP) observed 0700 UTC 19 April 2019
Temperature: 11.0°C (52°F)
Dewpoint: 1.0°C (34°F) [RH = 50%]
Pressure (altimeter): 29.68 inches Hg (1005.0 mb)
Winds: from the N (350 degrees) at 15 MPH (13 knots; 6.7 m/s)
Visibility: 6 or more miles (10+ km)
Ceiling: at least 12,000 feet AGL
Clouds: few clouds at 4000 feet AGL
Weather: no significant weather observed at this time

METAR text: RJCB 190600Z 35009KT 9999 FEW030 12/05 Q1005
Conditions at: RJCB (OBIHIRO AIRPORT , JP) observed 0600 UTC 19 April 2019
Temperature: 12.0°C (54°F)
Dewpoint: 5.0°C (41°F) [RH = 62%]
Pressure (altimeter): 29.68 inches Hg (1005.0 mb)
Winds: from the N (350 degrees) at 10 MPH (9 knots; 4.6 m/s)
Visibility: 6 or more miles (10+ km)
Ceiling: at least 12,000 feet AGL
Clouds: few clouds at 3000 feet AGL
Weather: no significant weather observed at this time

METAR text: RJCB 190500Z 30006KT 210V360 9999 FEW012 BKN017 11/06 Q1005
Conditions at: RJCB (OBIHIRO AIRPORT , JP) observed 0500 UTC 19 April 2019
Temperature: 11.0°C (52°F)
Dewpoint: 6.0°C (43°F) [RH = 71%]
Pressure (altimeter): 29.68 inches Hg (1005.0 mb)
Winds: from the WNW (300 degrees) at 7 MPH (6 knots; 3.1 m/s)
Visibility: 6 or more miles (10+ km)
Ceiling: 1700 feet AGL
Clouds: few clouds at 1200 feet AGL
broken clouds at 1700 feet AGL
Weather: no significant weather observed at this time

METAR text: RJCB 190400Z VRB03KT 9999 FEW008 BKN012 09/07 Q1005
Conditions at: RJCB (OBIHIRO AIRPORT , JP) observed 0400 UTC 19 April 2019
Temperature: 9.0°C (48°F)
Dewpoint: 7.0°C (45°F) [RH = 87%]
Pressure (altimeter): 29.68 inches Hg (1005.0 mb)
Winds: variable direction winds at 3 MPH (3 knots; 1.5 m/s)
Visibility: 6 or more miles (10+ km)
Ceiling: 1200 feet AGL
Clouds: few clouds at 800 feet AGL
broken clouds at 1200 feet AGL
Weather: no significant weather observed at this time

METAR text: RJCB 190300Z 18007KT 140V210 9999 SCT008 BKN010 08/05 Q1006
Conditions at: RJCB (OBIHIRO AIRPORT , JP) observed 0300 UTC 19 April 2019
Temperature: 8.0°C (46°F)
Dewpoint: 5.0°C (41°F) [RH = 81%]
Pressure (altimeter): 29.70 inches Hg (1006.0 mb)
Winds: from the S (180 degrees) at 8 MPH (7 knots; 3.6 m/s)
Visibility: 6 or more miles (10+ km)
Ceiling: 1000 feet AGL
Clouds: scattered clouds at 800 feet AGL
broken clouds at 1000 feet AGL
Weather: no significant weather observed at this time

METAR text: RJCB 190200Z 18006KT 140V220 9999 SCT006 BKN008 07/05 Q1006
Conditions at: RJCB (OBIHIRO AIRPORT , JP) observed 0200 UTC 19 April 2019
Temperature: 7.0°C (45°F)
Dewpoint: 5.0°C (41°F) [RH = 87%]
Pressure (altimeter): 29.70 inches Hg (1006.0 mb)
Winds: from the S (180 degrees) at 7 MPH (6 knots; 3.1 m/s)
Visibility: 6 or more miles (10+ km)
Ceiling: 800 feet AGL
Clouds: scattered clouds at 600 feet AGL
broken clouds at 800 feet AGL
Weather: no significant weather observed at this time

METAR text: RJCB 190100Z VRB02KT 8000 -SHRA FEW004 SCT005 BKN006 06/05 Q1007
Conditions at: RJCB (OBIHIRO AIRPORT , JP) observed 0100 UTC 19 April 2019
Temperature: 6.0°C (43°F)
Dewpoint: 5.0°C (41°F) [RH = 93%]
Pressure (altimeter): 29.73 inches Hg (1007.0 mb)
Winds: variable direction winds at 2 MPH (2 knots; 1.0 m/s)
Visibility: 5 miles ( 8 km)
Ceiling: 600 feet AGL
Clouds: few clouds at 400 feet AGL
scattered clouds at 500 feet AGL
broken clouds at 600 feet AGL
Weather: -SHRA  (light rain showers)

METAR text: RJCB 190000Z 17003KT 120V220 6000 -SHRA FEW003 SCT004 BKN005 06/05 Q1007
Conditions at: RJCB (OBIHIRO AIRPORT , JP) observed 0000 UTC 19 April 2019
Temperature: 6.0°C (43°F)
Dewpoint: 5.0°C (41°F) [RH = 93%]
Pressure (altimeter): 29.73 inches Hg (1007.0 mb)
Winds: from the S (170 degrees) at 3 MPH (3 knots; 1.5 m/s)
Visibility: 4 miles ( 6 km)
Ceiling: 500 feet AGL
Clouds: few clouds at 300 feet AGL
scattered clouds at 400 feet AGL
broken clouds at 500 feet AGL
Weather: -SHRA  (light rain showers)

METAR text: RJCB 182340Z 17004KT 130V210 5000 BR -SHRA SCT003 BKN004 06/05 Q1007 RMK 3ST003 7ST004 A2975
Conditions at: RJCB (OBIHIRO AIRPORT , JP) observed 2340 UTC 18 April 2019
Temperature: 6.0°C (43°F)
Dewpoint: 5.0°C (41°F) [RH = 93%]
Pressure (altimeter): 29.73 inches Hg (1007.0 mb)
Winds: from the S (170 degrees) at 5 MPH (4 knots; 2.1 m/s)
Visibility: 3 miles ( 5 km)
Ceiling: 400 feet AGL
Clouds: scattered clouds at 300 feet AGL
broken clouds at 400 feet AGL
Weather: BR -SHRA  (mist, light rain showers)

METAR text: RJCB 182328Z 13003KT 100V170 3200 BR -SHRA FEW002 SCT003 BKN004 05/05 Q1007 RMK 1ST002 4ST003 7ST004 A2975
Conditions at: RJCB (OBIHIRO AIRPORT , JP) observed 2328 UTC 18 April 2019
Temperature: 5.0°C (41°F)
Dewpoint: 5.0°C (41°F) [RH = 100%]
Pressure (altimeter): 29.73 inches Hg (1007.0 mb)
Winds: from the SE (130 degrees) at 3 MPH (3 knots; 1.5 m/s)
Visibility: 1.99 miles (3.20 km)
Ceiling: 400 feet AGL
Clouds: few clouds at 200 feet AGL
scattered clouds at 300 feet AGL
broken clouds at 400 feet AGL
Weather: BR -SHRA  (mist, light rain showers)

METAR text: RJCB 182323Z 14004KT 2400 BR -SHRA FEW002 BKN003 05/05 Q1007 RMK 2ST002 7ST003 A2975
Conditions at: RJCB (OBIHIRO AIRPORT , JP) observed 2323 UTC 18 April 2019
Temperature: 5.0°C (41°F)
Dewpoint: 5.0°C (41°F) [RH = 100%]
Pressure (altimeter): 29.73 inches Hg (1007.0 mb)
Winds: from the SE (140 degrees) at 5 MPH (4 knots; 2.1 m/s)
Visibility: 1.49 miles (2.40 km)
Ceiling: 300 feet AGL
Clouds: few clouds at 200 feet AGL
broken clouds at 300 feet AGL
Weather: BR -SHRA  (mist, light rain showers)

METAR text: RJCB 182312Z 15004KT 120V190 1600 BR -SHRA FEW001 SCT002 BKN003 05/05 Q1007 RMK 1ST001 3ST002 7ST003 A2975
Conditions at: RJCB (OBIHIRO AIRPORT , JP) observed 2312 UTC 18 April 2019
Temperature: 5.0°C (41°F)
Dewpoint: 5.0°C (41°F) [RH = 100%]
Pressure (altimeter): 29.73 inches Hg (1007.0 mb)
Winds: from the SSE (150 degrees) at 5 MPH (4 knots; 2.1 m/s)
Visibility: 0.99 miles (1.59 km)
Ceiling: 300 feet AGL
Clouds: few clouds at 100 feet AGL
scattered clouds at 200 feet AGL
broken clouds at 300 feet AGL
Weather: BR -SHRA  (mist, light rain showers)

METAR text: RJCB 182305Z 15004KT 120V190 1500 R35/2000U BR -SHRA FEW001 SCT002 BKN003 05/05 Q1007 RMK 2ST001 4ST002 7ST003 A2976
Conditions at: RJCB (OBIHIRO AIRPORT , JP) observed 2305 UTC 18 April 2019
Temperature: 5.0°C (41°F)
Dewpoint: 5.0°C (41°F) [RH = 100%]
Pressure (altimeter): 29.73 inches Hg (1007.0 mb)
Winds: from the SSE (150 degrees) at 5 MPH (4 knots; 2.1 m/s)
Visibility: 0.93 miles (1.50 km)
Ceiling: 300 feet AGL
Clouds: few clouds at 100 feet AGL
scattered clouds at 200 feet AGL
broken clouds at 300 feet AGL
Weather: -SHRA BR  (light rain showers, mist)

METAR text: RJCB 182300Z 14004KT 090V170 1200 R35/1800U BR -SHRA SCT001 BKN002 05/05 Q1007
Conditions at: RJCB (OBIHIRO AIRPORT , JP) observed 2300 UTC 18 April 2019
Temperature: 5.0°C (41°F)
Dewpoint: 5.0°C (41°F) [RH = 100%]
Pressure (altimeter): 29.73 inches Hg (1007.0 mb)
Winds: from the SE (140 degrees) at 5 MPH (4 knots; 2.1 m/s)
Visibility: 0.75 miles (1.21 km)
Ceiling: 200 feet AGL
Clouds: scattered clouds at 100 feet AGL
broken clouds at 200 feet AGL
Weather: -SHRA BR  (light rain showers, mist)

METAR text: RJCB 182247Z 13004KT 0900 R35/0800V1500U FG -SHRA VV002 05/05 Q1007 RMK A2976
Conditions at: RJCB (OBIHIRO AIRPORT , JP) observed 2247 UTC 18 April 2019
Temperature: 5.0°C (41°F)
Dewpoint: 5.0°C (41°F) [RH = 100%]
Pressure (altimeter): 29.73 inches Hg (1007.0 mb)
Winds: from the SE (130 degrees) at 5 MPH (4 knots; 2.1 m/s)
Visibility: 0.56 miles (0.90 km)
Ceiling: indefinite ceiling with vertical visibility of 200 feet AGL
Clouds: obscured sky
Weather: -SHRA FG  (light rain showers, fog)

METAR text: RJCB 182240Z 14004KT 110V170 0800 R35/0800V1200D FG -SHRA VV002 05/05 Q1007 RMK A2976
Conditions at: RJCB (OBIHIRO AIRPORT , JP) observed 2240 UTC 18 April 2019
Temperature: 5.0°C (41°F)
Dewpoint: 5.0°C (41°F) [RH = 100%]
Pressure (altimeter): 29.73 inches Hg (1007.0 mb)
Winds: from the SE (140 degrees) at 5 MPH (4 knots; 2.1 m/s)
Visibility: 0.50 miles (0.80 km)
Ceiling: indefinite ceiling with vertical visibility of 200 feet AGL
Clouds: obscured sky
Weather: -SHRA FG  (light rain showers, fog)

METAR text: RJCB 181100Z VRB02KT CAVOK 07/04 Q1009
Conditions at: RJCB (OBIHIRO AIRPORT , JP) observed 1100 UTC 18 April 2019
Temperature: 7.0°C (45°F)
Dewpoint: 4.0°C (39°F) [RH = 81%]
Pressure (altimeter): 29.79 inches Hg (1009.0 mb)
Winds: variable direction winds at 2 MPH (2 knots; 1.0 m/s)
Visibility: 6 or more miles (10+ km)
Ceiling: ceiling and visibility are OK
Clouds: unknown
Weather: no significant weather observed at this time

METAR text: RJCB 181000Z 18009KT CAVOK 08/04 Q1009
Conditions at: RJCB (OBIHIRO AIRPORT , JP) observed 1000 UTC 18 April 2019
Temperature: 8.0°C (46°F)
Dewpoint: 4.0°C (39°F) [RH = 76%]
Pressure (altimeter): 29.79 inches Hg (1009.0 mb)
Winds: from the S (180 degrees) at 10 MPH (9 knots; 4.6 m/s)
Visibility: 6 or more miles (10+ km)
Ceiling: ceiling and visibility are OK
Clouds: unknown
Weather: no significant weather observed at this time

METAR text: RJCB 180900Z 16010KT CAVOK 10/04 Q1008
Conditions at: RJCB (OBIHIRO AIRPORT , JP) observed 0900 UTC 18 April 2019
Temperature: 10.0°C (50°F)
Dewpoint: 4.0°C (39°F) [RH = 66%]
Pressure (altimeter): 29.76 inches Hg (1008.0 mb)
Winds: from the SSE (160 degrees) at 12 MPH (10 knots; 5.1 m/s)
Visibility: 6 or more miles (10+ km)
Ceiling: ceiling and visibility are OK
Clouds: unknown
Weather: no significant weather observed at this time

METAR text: RJCB 180800Z 15014KT CAVOK 13/03 Q1008
Conditions at: RJCB (OBIHIRO AIRPORT , JP) observed 0800 UTC 18 April 2019
Temperature: 13.0°C (55°F)
Dewpoint: 3.0°C (37°F) [RH = 51%]
Pressure (altimeter): 29.76 inches Hg (1008.0 mb)
Winds: from the SSE (150 degrees) at 16 MPH (14 knots; 7.2 m/s)
Visibility: 6 or more miles (10+ km)
Ceiling: ceiling and visibility are OK
Clouds: unknown
Weather: no significant weather observed at this time

Forecast for: RJCB (OBIHIRO AIRPORT , JP)
Text: TAF RJCB 191707Z 1918/2100 15004KT 9999 FEW020 BKN040
Forecast period: 1800 to 2200 UTC 19 April 2019
Forecast type: FROM: standard forecast or significant change
Winds: from the SSE (150 degrees) at 5 MPH (4 knots; 2.1 m/s)
Visibility: 6 or more miles 10+ km)
Ceiling: 4000 feet AGL
Clouds: few clouds at 2000 feet AGL
broken clouds at 4000 feet AGL
Weather: no significant weather forecast for this period
Text: BECMG 1922/2000 33008KT
Forecast period: 2200 UTC 19 April 2019 to 2100 UTC 20 April 2019
Forecast type: BECOMING: Conditions expected to become as follows by 0000 UTC 20 April 2019
Winds: from the NNW (330 degrees) at 9 MPH (8 knots; 4.1 m/s)
Visibility: 6 or more miles 10+ km)
Ceiling: 4000 feet AGL
Clouds: few clouds at 2000 feet AGL
broken clouds at 4000 feet AGL
Weather: no significant weather forecast for this period
Text: TEMPO 2003/2009 33018G28KT
Forecast period: 0300 to 0900 UTC 20 April 2019
Forecast type: TEMPORARY: The following changes expected for less than half the time period
Winds: from the NNW (330 degrees) at 21 MPH (18 knots; 9.3 m/s)
gusting to 32 MPH (28 knots; 14.4 m/s)
Visibility: missing
Ceiling: unknown
Clouds: missing
Weather: no significant weather forecast for this period
Text: BECMG 2021/2100 14006KT
Forecast period: 2100 UTC 20 April 2019 to 0000 UTC 21 April 2019
Forecast type: BECOMING: Conditions expected to become as follows by 0000 UTC 21 April 2019
Winds: from the SE (140 degrees) at 7 MPH (6 knots; 3.1 m/s)
Visibility: 6 or more miles 10+ km)
Ceiling: 4000 feet AGL
Clouds: few clouds at 2000 feet AGL
broken clouds at 4000 feet AGL
Weather: no significant weather forecast for this period